Time;durP1;ratioP1;P1;durP2;ratioP2;P2;SDS_P1;SDS_P2;PMS_P1;PMS_P2;Temp;Humidity;BMP_temperature;BMP_pressure;BME280_temperature;BME280_humidity;BME280_pressure;Samples;Min_cycle;Max_cycle;Signal;HPM_P1;HPM_P2
2021/03/24 00:01:48;;;;;;;24.83;14.63;;;;;;;3.28;84.97;98876.70;128000;1113;23364;-76
2021/03/24 00:04:14;;;;;;;24.63;14.20;;;;;;;3.27;85.67;98875.84;127997;1114;22871;-76
2021/03/24 00:06:41;;;;;;;20.90;12.17;;;;;;;3.26;85.21;98884.95;127979;1114;23594;-76
2021/03/24 00:09:13;;;;;;;20.33;10.97;;;;;;;3.23;84.95;98879.94;127989;1114;22901;-76
2021/03/24 00:11:40;;;;;;;27.57;13.83;;;;;;;3.24;85.25;98884.31;128004;1115;22928;-76
2021/03/24 00:14:07;;;;;;;27.57;14.47;;;;;;;3.22;86.41;98871.03;128004;1114;22824;-76
2021/03/24 00:16:33;;;;;;;23.43;14.30;;;;;;;3.19;86.08;98860.64;128007;1114;22785;-76
2021/03/24 00:19:00;;;;;;;24.50;13.67;;;;;;;3.20;86.07;98864.16;128026;1113;22863;-76
2021/03/24 00:21:26;;;;;;;25.20;14.10;;;;;;;3.18;86.18;98871.59;128002;1115;22886;-75
2021/03/24 00:23:53;;;;;;;25.70;13.57;;;;;;;3.18;86.31;98866.20;128017;1114;22826;-76
2021/03/24 00:26:20;;;;;;;20.60;11.80;;;;;;;3.17;84.87;98868.06;128027;1114;22805;-76
2021/03/24 00:28:46;;;;;;;24.07;12.73;;;;;;;3.19;85.07;98867.89;128018;1114;23438;-76
2021/03/24 00:31:13;;;;;;;23.33;13.50;;;;;;;3.17;85.16;98869.91;128003;1113;23768;-76
2021/03/24 00:33:40;;;;;;;21.33;12.93;;;;;;;3.15;84.75;98867.42;128012;1114;22840;-75
2021/03/24 00:36:07;;;;;;;21.30;12.17;;;;;;;3.16;85.70;98869.08;128001;1113;22876;-76
2021/03/24 00:38:33;;;;;;;22.20;13.80;;;;;;;3.18;84.35;98866.20;128007;1115;22873;-76
2021/03/24 00:41:00;;;;;;;23.40;13.27;;;;;;;3.16;85.55;98869.08;128023;1113;23418;-76
2021/03/24 00:43:27;;;;;;;20.20;14.07;;;;;;;3.15;84.89;98866.56;128027;1114;23441;-76
2021/03/24 00:45:54;;;;;;;16.77;11.90;;;;;;;3.13;85.17;98860.55;128047;1115;23590;-76
2021/03/24 00:48:28;;;;;;;23.00;13.67;;;;;;;3.11;85.87;98862.59;128023;1114;22882;-76
2021/03/24 00:50:56;;;;;;;26.47;14.53;;;;;;;3.11;85.10;98859.91;127991;1114;22916;-76
2021/03/24 00:53:24;;;;;;;21.12;13.15;;;;;;;3.10;85.14;98860.91;128012;1113;22805;-76
2021/03/24 00:55:52;;;;;;;19.33;12.13;;;;;;;3.10;85.26;98885.12;128009;1114;22767;-76
2021/03/24 00:58:19;;;;;;;24.73;14.53;;;;;;;3.08;86.14;98866.51;128010;1114;22874;-76
2021/03/24 01:00:48;;;;;;;24.87;12.53;;;;;;;3.04;86.63;98865.19;128010;1114;22817;-76
2021/03/24 01:03:16;;;;;;;24.77;13.78;;;;;;;3.02;86.26;98876.12;128027;1114;22861;-76
2021/03/24 01:05:47;;;;;;;21.83;13.67;;;;;;;3.03;85.61;98875.13;127981;1114;22818;-76
2021/03/24 01:08:22;;;;;;;20.83;14.73;;;;;;;3.03;85.92;98867.05;128004;1114;23579;-76
2021/03/24 01:10:49;;;;;;;18.40;12.57;;;;;;;3.02;85.90;98876.12;128009;1114;22815;-76
2021/03/24 01:13:17;;;;;;;26.17;15.57;;;;;;;3.03;85.52;98875.13;128032;1113;23607;-76
2021/03/24 01:15:44;;;;;;;21.83;12.93;;;;;;;3.03;86.09;98882.38;128010;1114;22973;-76
2021/03/24 01:18:11;;;;;;;25.30;13.40;;;;;;;3.02;85.81;98883.38;128023;1114;22821;-76
2021/03/24 01:20:39;;;;;;;18.57;12.20;;;;;;;3.00;85.81;98880.87;127989;1113;23604;-76
2021/03/24 01:23:06;;;;;;;21.30;11.97;;;;;;;3.01;85.67;98887.93;128024;1114;22864;-75
2021/03/24 01:25:33;;;;;;;23.93;13.63;;;;;;;3.03;85.47;98876.98;128010;1114;22822;-75
2021/03/24 01:28:02;;;;;;;18.70;10.37;;;;;;;3.03;85.55;98874.30;128006;1114;22867;-75
2021/03/24 01:30:30;;;;;;;18.05;11.35;;;;;;;3.03;84.48;98890.44;128024;1114;22859;-75
2021/03/24 01:32:57;;;;;;;21.17;12.70;;;;;;;3.04;84.94;98884.84;128019;1113;23793;-75
2021/03/24 01:35:24;;;;;;;19.15;11.55;;;;;;;3.01;84.58;98887.93;128012;1114;22831;-76
2021/03/24 01:37:52;;;;;;;18.43;12.53;;;;;;;3.03;84.43;98885.06;128037;1113;22789;-75
2021/03/24 01:40:27;;;;;;;23.33;9.80;;;;;;;3.04;85.28;98881.33;128040;1114;23559;-75
2021/03/24 01:43:00;;;;;;;14.77;9.90;;;;;;;3.02;84.48;98870.75;127993;1114;22812;-75
2021/03/24 01:45:30;;;;;;;17.90;11.70;;;;;;;3.01;84.24;98871.79;128013;1115;22879;-76
2021/03/24 01:47:59;;;;;;;19.80;11.30;;;;;;;3.03;84.79;98871.61;128058;1114;23379;-76
2021/03/24 01:50:33;;;;;;;17.23;10.83;;;;;;;3.00;84.78;98864.73;128004;1113;22885;-75
2021/03/24 01:53:00;;;;;;;17.87;11.23;;;;;;;3.00;84.76;98880.87;128008;1114;22876;-75
2021/03/24 01:55:27;;;;;;;16.63;10.03;;;;;;;2.99;84.30;98875.67;127997;1113;22839;-75
2021/03/24 01:57:55;;;;;;;16.73;11.77;;;;;;;2.97;84.52;98885.78;128018;1114;23643;-75
2021/03/24 02:00:28;;;;;;;17.40;10.57;;;;;;;2.97;85.41;98875.03;128031;1114;22853;-75
2021/03/24 02:02:55;;;;;;;17.10;10.50;;;;;;;2.98;85.25;98882.09;128004;1113;22898;-75
2021/03/24 02:05:21;;;;;;;19.13;11.57;;;;;;;2.98;84.62;98898.23;128016;1113;22868;-75
2021/03/24 02:08:11;;;;;;;19.73;11.67;;;;;;;3.02;84.43;98883.38;128020;1115;22863;-75
2021/03/24 02:10:48;;;;;;;19.87;12.03;;;;;;;3.02;84.36;98888.76;128013;1115;22793;-75
2021/03/24 02:13:29;;;;;;;26.20;12.53;;;;;;;3.02;83.84;98891.45;128020;1114;22838;-75
2021/03/24 02:16:00;;;;;;;19.20;11.70;;;;;;;3.01;83.69;98887.08;128002;1113;22797;-75
2021/03/24 02:18:31;;;;;;;19.53;11.17;;;;;;;3.02;83.77;98892.27;128022;1113;22875;-76
2021/03/24 02:21:04;;;;;;;17.73;10.23;;;;;;;3.06;83.39;98881.97;128018;1114;23434;-76
2021/03/24 02:23:42;;;;;;;14.23;8.43;;;;;;;3.07;82.81;98882.83;128008;1114;22812;-75
2021/03/24 02:26:46;;;;;;;20.25;11.00;;;;;;;3.05;83.07;98891.09;128016;1114;22984;-75
2021/03/24 02:29:19;;;;;;;18.07;10.10;;;;;;;3.06;82.44;98889.22;128034;1113;22846;-75
2021/03/24 02:31:47;;;;;;;19.03;10.07;;;;;;;3.07;83.50;98885.52;127987;1113;22873;-75
2021/03/24 02:34:20;;;;;;;20.30;10.17;;;;;;;3.07;83.00;98890.91;128027;1114;22806;-75
2021/03/24 02:36:48;;;;;;;17.70;9.33;;;;;;;3.06;83.22;98892.73;128022;1115;22825;-75
2021/03/24 02:39:18;;;;;;;13.83;9.07;;;;;;;3.06;82.53;98883.84;127994;1114;23548;-75
2021/03/24 02:41:45;;;;;;;15.17;9.63;;;;;;;3.07;82.48;98882.83;128028;1114;22791;-75
2021/03/24 02:44:13;;;;;;;19.40;9.47;;;;;;;3.06;83.03;98887.36;128005;1115;23762;-75
2021/03/24 02:46:43;;;;;;;17.60;10.60;;;;;;;3.04;83.32;98895.61;127987;1113;22799;-75
2021/03/24 02:49:12;;;;;;;18.75;8.80;;;;;;;3.03;82.50;98891.27;128010;1113;23513;-75
2021/03/24 02:51:39;;;;;;;17.35;10.03;;;;;;;3.04;83.08;98892.09;127992;1113;22891;-75
2021/03/24 02:54:14;;;;;;;16.67;9.77;;;;;;;3.05;82.97;98901.84;127949;1113;23082;-75
2021/03/24 02:56:40;;;;;;;14.80;9.03;;;;;;;3.06;83.67;98890.05;127996;1114;22990;-75
2021/03/24 02:59:08;;;;;;;12.97;8.80;;;;;;;3.04;82.90;98894.78;127986;1113;22943;-75
2021/03/24 03:01:48;;;;;;;13.40;7.97;;;;;;;3.03;83.48;98901.20;127998;1113;22864;-75
2021/03/24 03:04:23;;;;;;;17.07;11.07;;;;;;;3.02;83.41;98903.03;128002;1114;22824;-75
2021/03/24 03:06:53;;;;;;;19.40;10.00;;;;;;;3.01;82.83;98898.70;127972;1113;22883;-75
2021/03/24 03:09:31;;;;;;;18.60;11.23;;;;;;;2.99;83.26;98895.36;127983;1114;22826;-75
2021/03/24 03:12:00;;;;;;;17.63;9.90;;;;;;;2.98;84.04;98898.23;127997;1113;23656;-75
2021/03/24 03:14:35;;;;;;;17.32;10.70;;;;;;;2.96;83.19;98890.34;128000;1113;22846;-75
2021/03/24 03:17:09;;;;;;;18.73;10.23;;;;;;;2.97;83.73;98899.23;128006;1113;22999;-75
2021/03/24 03:19:42;;;;;;;18.17;10.83;;;;;;;2.96;83.72;98895.72;128024;1113;23664;-75
2021/03/24 03:22:31;;;;;;;19.43;10.30;;;;;;;2.96;83.84;98897.59;128020;1114;22859;-75
2021/03/24 03:25:19;;;;;;;13.97;9.13;;;;;;;2.96;83.25;98897.59;128012;1113;22924;-75
2021/03/24 03:27:49;;;;;;;15.27;9.80;;;;;;;2.96;83.27;98897.59;127991;1115;23966;-75
2021/03/24 03:30:17;;;;;;;15.40;9.50;;;;;;;2.92;82.99;98898.95;127998;1115;22782;-75
2021/03/24 03:32:47;;;;;;;24.15;12.35;;;;;;;2.91;83.91;98892.75;128024;1113;23799;-75
2021/03/24 03:35:19;;;;;;;19.63;11.10;;;;;;;2.91;83.08;98895.44;128012;1114;22822;-75
2021/03/24 03:37:48;;;;;;;17.27;9.97;;;;;;;2.91;83.79;98897.30;128028;1113;22858;-75
2021/03/24 03:40:18;;;;;;;18.05;9.73;;;;;;;2.88;83.47;98897.66;128018;1113;22827;-75
2021/03/24 03:42:45;;;;;;;20.80;11.80;;;;;;;2.89;83.82;98899.34;128013;1114;22882;-75
2021/03/24 03:45:13;;;;;;;19.03;9.93;;;;;;;2.88;83.38;98898.48;128031;1113;23412;-75
2021/03/24 03:47:43;;;;;;;18.33;9.83;;;;;;;2.85;83.70;98894.33;128030;1113;23189;-75
2021/03/24 03:50:19;;;;;;;18.00;9.73;;;;;;;2.84;83.24;98895.33;128022;1113;23632;-75
2021/03/24 03:52:51;;;;;;;19.50;10.20;;;;;;;2.86;83.85;98903.22;127997;1114;23608;-75
2021/03/24 03:55:21;;;;;;;20.43;10.47;;;;;;;2.86;83.11;98892.46;127982;1113;23651;-75
2021/03/24 03:58:06;;;;;;;17.03;9.60;;;;;;;2.87;83.24;98890.59;128005;1113;22941;-75
2021/03/24 04:00:39;;;;;;;22.57;10.67;;;;;;;2.85;83.63;98894.33;128016;1114;23569;-75
2021/03/24 04:03:14;;;;;;;17.07;9.77;;;;;;;2.85;83.40;98890.78;128023;1113;23521;-76
2021/03/24 04:05:49;;;;;;;20.27;10.10;;;;;;;2.87;82.88;98901.36;128011;1114;23455;-75
2021/03/24 04:08:21;;;;;;;20.77;10.83;;;;;;;2.86;82.75;98900.53;128013;1113;22981;-75
2021/03/24 04:10:52;;;;;;;23.77;11.80;;;;;;;2.85;82.82;98899.70;127992;1113;23611;-75
2021/03/24 04:13:21;;;;;;;22.17;11.67;;;;;;;2.87;83.40;98901.36;127990;1115;23092;-76
2021/03/24 04:16:12;;;;;;;17.30;9.93;;;;;;;2.87;83.18;98898.67;128056;1113;22942;-75
2021/03/24 04:18:46;;;;;;;22.77;12.30;;;;;;;2.86;83.19;98916.67;128023;1114;23386;-75
2021/03/24 04:21:13;;;;;;;16.73;9.97;;;;;;;2.87;82.96;98909.42;128050;1113;22796;-75
2021/03/24 04:23:45;;;;;;;20.87;12.67;;;;;;;2.90;83.21;98906.38;128003;1113;22853;-75
2021/03/24 04:26:21;;;;;;;17.33;9.37;;;;;;;2.90;83.15;98904.52;128055;1114;22775;-75
2021/03/24 04:28:52;;;;;;;21.57;11.53;;;;;;;2.87;83.03;98912.12;128031;1114;22838;-75
2021/03/24 04:31:22;;;;;;;20.43;10.67;;;;;;;2.87;83.14;98909.42;128000;1113;22966;-75
2021/03/24 04:33:49;;;;;;;20.10;11.20;;;;;;;2.88;82.97;98917.31;128024;1113;23027;-75
2021/03/24 04:36:19;;;;;;;15.93;8.87;;;;;;;2.89;82.72;98916.31;128004;1114;22787;-75
2021/03/24 04:38:48;;;;;;;;;;;;;;;2.89;83.39;98916.31;128046;1114;23736;-75
2021/03/24 04:41:23;;;;;;;18.57;9.40;;;;;;;2.90;83.18;98922.52;128019;1115;21339;-75
2021/03/24 04:44:06;;;;;;;19.67;10.57;;;;;;;2.91;82.58;98911.58;128014;1114;22778;-75
2021/03/24 04:46:38;;;;;;;17.10;10.37;;;;;;;2.91;82.66;98926.89;128008;1114;22799;-75
2021/03/24 04:49:19;;;;;;;21.07;10.07;;;;;;;2.90;82.31;98926.03;128020;1114;22842;-75
2021/03/24 04:51:47;;;;;;;24.50;12.37;;;;;;;2.93;82.67;98924.84;128037;1114;23605;-75
2021/03/24 04:54:37;;;;;;;18.70;11.07;;;;;;;2.92;82.78;98926.71;128018;1114;22800;-75
2021/03/24 04:57:11;;;;;;;19.90;11.13;;;;;;;2.94;83.42;98937.27;128035;1114;22786;-75
2021/03/24 04:59:42;;;;;;;20.80;11.70;;;;;;;2.93;82.50;98931.05;128050;1114;22848;-75
2021/03/24 05:02:32;;;;;;;18.57;11.10;;;;;;;2.95;82.62;98934.39;128030;1114;23649;-75
2021/03/24 05:05:25;;;;;;;21.20;11.30;;;;;;;2.95;82.63;98934.39;128014;1113;22972;-75
2021/03/24 05:08:18;;;;;;;19.80;10.87;;;;;;;2.95;82.45;98949.70;128015;1115;22822;-75
2021/03/24 05:10:45;;;;;;;20.77;11.57;;;;;;;2.97;82.93;98945.80;127855;1113;22898;-75
2021/03/24 05:13:31;;;;;;;24.43;14.13;;;;;;;2.99;83.21;98941.09;128038;1114;22888;-75
2021/03/24 05:16:32;;;;;;;25.77;13.77;;;;;;;2.99;82.57;98949.17;128039;1114;22796;-75
2021/03/24 05:19:00;;;;;;;20.63;12.07;;;;;;;3.01;83.03;98949.81;128035;1113;22885;-75
2021/03/24 05:21:45;;;;;;;22.70;13.30;;;;;;;3.03;83.06;98949.63;128016;1114;22800;-76
2021/03/24 05:24:17;;;;;;;19.67;10.20;;;;;;;3.04;82.86;98952.11;128018;1114;23432;-75
2021/03/24 05:26:50;;;;;;;20.17;11.03;;;;;;;3.06;82.18;98949.23;128019;1115;23118;-75
2021/03/24 05:29:21;;;;;;;16.83;9.50;;;;;;;3.07;82.10;98950.92;128016;1113;22815;-75
2021/03/24 05:31:52;;;;;;;25.20;13.23;;;;;;;3.09;82.81;98951.57;128036;1114;22959;-75
2021/03/24 05:34:25;;;;;;;29.10;15.30;;;;;;;3.11;82.03;98946.01;128039;1113;22799;-75
2021/03/24 05:36:53;;;;;;;23.60;11.73;;;;;;;3.11;82.21;98948.70;127999;1114;22941;-75
2021/03/24 05:39:27;;;;;;;24.77;13.13;;;;;;;3.11;82.09;98952.22;128063;1113;22863;-75
2021/03/24 05:41:59;;;;;;;22.63;12.17;;;;;;;3.12;82.00;98943.14;128035;1114;22950;-75
2021/03/24 05:44:47;;;;;;;17.57;8.97;;;;;;;3.12;82.68;98947.69;128037;1113;23713;-75
2021/03/24 05:47:43;;;;;;;22.90;11.83;;;;;;;3.14;81.91;98948.34;128019;1115;23656;-75
2021/03/24 05:50:48;;;;;;;18.03;10.93;;;;;;;3.18;82.54;98955.84;128013;1113;22796;-75
2021/03/24 05:53:29;;;;;;;16.97;9.47;;;;;;;3.20;82.05;98955.66;128030;1113;23606;-75
2021/03/24 05:56:29;;;;;;;21.30;11.90;;;;;;;3.23;82.44;98957.98;128016;1113;22823;-75
2021/03/24 05:58:55;;;;;;;21.07;11.68;;;;;;;3.25;82.01;98949.73;128043;1114;22920;-75
2021/03/24 06:01:35;;;;;;;20.73;11.17;;;;;;;3.28;81.27;98946.67;128046;1114;22936;-76
2021/03/24 06:04:19;;;;;;;17.70;10.40;;;;;;;3.30;82.35;98950.01;128019;1113;22806;-75
2021/03/24 06:07:23;;;;;;;28.00;13.70;;;;;;;3.34;81.49;98959.38;128012;1114;23334;-75
2021/03/24 06:10:26;;;;;;;20.70;11.37;;;;;;;3.36;81.08;98960.02;128023;1113;23340;-75
2021/03/24 06:13:12;;;;;;;14.03;8.53;;;;;;;3.37;80.87;98961.70;127987;1114;23042;-75
2021/03/24 06:16:15;;;;;;;18.57;10.00;;;;;;;3.39;81.05;98957.79;128032;1114;22799;-75
2021/03/24 06:19:07;;;;;;;18.60;11.27;;;;;;;3.41;80.82;98960.30;128025;1115;22918;-76
2021/03/24 06:22:01;;;;;;;20.43;10.97;;;;;;;3.44;81.93;98967.19;128038;1115;22811;-76
2021/03/24 06:25:25;;;;;;;18.47;10.17;;;;;;;3.46;81.87;98955.20;128050;1114;22921;-76
2021/03/24 06:28:17;;;;;;;20.20;11.13;;;;;;;3.47;81.42;98964.95;127751;1115;22975;-75
2021/03/24 06:31:00;;;;;;;20.07;9.73;;;;;;;3.51;81.44;98970.80;127733;1115;23453;-75
2021/03/24 06:33:48;;;;;;;23.23;11.30;;;;;;;3.54;81.22;98971.26;128031;1116;22874;-75
2021/03/24 06:36:41;;;;;;;19.10;10.50;;;;;;;3.57;81.67;98973.56;128001;1115;23259;-76
2021/03/24 06:39:25;;;;;;;18.37;10.97;;;;;;;3.58;81.00;98972.55;127740;1115;22837;-75
2021/03/24 06:42:07;;;;;;;24.00;11.23;;;;;;;3.60;80.48;98978.58;127734;1116;22873;-75
2021/03/24 06:45:11;;;;;;;21.70;10.87;;;;;;;3.66;80.26;98981.55;128005;1114;22835;-76
2021/03/24 06:48:04;;;;;;;16.13;9.87;;;;;;;3.70;79.97;98982.83;128003;1115;22891;-75
2021/03/24 06:51:08;;;;;;;24.47;11.93;;;;;;;3.73;80.77;98988.67;127730;1116;23038;-76
2021/03/24 06:54:07;;;;;;;23.50;12.23;;;;;;;3.78;80.88;98997.03;127734;1115;23709;-76
2021/03/24 06:57:09;;;;;;;21.10;10.88;;;;;;;3.79;79.37;98998.72;127736;1115;22843;-76
2021/03/24 06:59:57;;;;;;;21.77;11.43;;;;;;;3.79;80.21;98992.50;128000;1114;22806;-76
2021/03/24 07:02:50;;;;;;;20.37;11.57;;;;;;;3.80;80.58;98999.55;127989;1115;22981;-76
2021/03/24 07:05:54;;;;;;;20.83;11.03;;;;;;;3.82;80.02;99002.87;127992;1114;22881;-75
2021/03/24 07:08:47;;;;;;;17.80;11.03;;;;;;;3.84;80.06;98995.44;127986;1113;22823;-75
2021/03/24 07:11:17;;;;;;;26.70;13.30;;;;;;;3.88;79.89;99002.14;127996;1114;22847;-76
2021/03/24 07:14:11;;;;;;;22.03;12.47;;;;;;;3.94;80.19;99006.77;128028;1113;22882;-76
2021/03/24 07:17:02;;;;;;;19.63;11.13;;;;;;;3.97;79.85;99008.27;128022;1114;23557;-76
2021/03/24 07:19:50;;;;;;;24.03;11.43;;;;;;;3.96;79.10;99015.48;128024;1115;22853;-75
2021/03/24 07:22:35;;;;;;;20.57;12.80;;;;;;;3.97;80.28;99006.39;128023;1113;22846;-75
2021/03/24 07:25:11;;;;;;;23.43;13.23;;;;;;;4.02;79.95;99010.37;127995;1114;22901;-76
2021/03/24 07:27:59;;;;;;;29.53;14.63;;;;;;;4.06;79.47;99009.81;128012;1114;22907;-76
2021/03/24 07:30:49;;;;;;;25.90;14.37;;;;;;;4.12;81.11;99009.05;127996;1113;22958;-76
2021/03/24 07:33:15;;;;;;;24.33;14.03;;;;;;;4.19;79.51;99022.61;128001;1114;23400;-76
2021/03/24 07:36:13;;;;;;;27.37;14.80;;;;;;;4.23;79.39;99026.58;128032;1114;22805;-76
2021/03/24 07:38:55;;;;;;;23.27;13.10;;;;;;;4.23;79.12;99021.19;128008;1114;22856;-76
2021/03/24 07:41:54;;;;;;;23.60;12.53;;;;;;;4.27;79.23;99035.16;128011;1115;22875;-77
2021/03/24 07:44:58;;;;;;;20.88;11.65;;;;;;;4.28;79.75;99017.94;128024;1113;23599;-78
2021/03/24 07:47:30;;;;;;;24.70;13.27;;;;;;;4.30;79.11;99024.83;128021;1114;22870;-78
2021/03/24 07:50:16;;;;;;;25.13;14.27;;;;;;;4.37;79.32;99028.42;128012;1114;23049;-79
2021/03/24 07:52:57;;;;;;;24.63;13.17;;;;;;;4.47;79.81;99025.41;127990;1113;22824;-78
2021/03/24 07:56:02;;;;;;;21.50;11.43;;;;;;;4.54;79.99;99037.09;128000;1113;22832;-78
2021/03/24 07:58:56;;;;;;;23.70;12.80;;;;;;;4.56;77.49;99032.34;127993;1114;22816;-78
2021/03/24 08:01:45;;;;;;;27.60;16.67;;;;;;;4.60;78.48;99040.05;127982;1114;23533;-78
2021/03/24 08:04:51;;;;;;;22.77;12.90;;;;;;;4.62;77.50;99041.55;127981;1114;22803;-78
2021/03/24 08:07:57;;;;;;;25.10;13.00;;;;;;;4.63;77.87;99050.47;128043;1113;22826;-78
2021/03/24 08:10:29;;;;;;;24.57;14.67;;;;;;;4.62;78.71;99048.78;128006;1114;22867;-78
2021/03/24 08:13:15;;;;;;;25.47;12.57;;;;;;;4.59;76.65;99046.49;128030;1114;22871;-78
2021/03/24 08:16:20;;;;;;;24.77;13.13;;;;;;;4.56;76.81;99042.30;128020;1115;22842;-78
2021/03/24 08:18:52;;;;;;;18.90;10.80;;;;;;;4.54;77.24;99047.87;127992;1113;22798;-78
2021/03/24 08:21:43;;;;;;;19.03;11.27;;;;;;;4.55;78.45;99036.08;128035;1113;22876;-78
2021/03/24 08:24:13;;;;;;;25.47;13.53;;;;;;;4.60;77.43;99037.36;127999;1114;23400;-78
2021/03/24 08:26:57;;;;;;;20.13;11.90;;;;;;;4.66;78.21;99044.70;128025;1115;22954;-78
2021/03/24 08:29:32;;;;;;;22.80;11.90;;;;;;;4.71;77.21;99043.09;128007;1114;22871;-78
2021/03/24 08:32:34;;;;;;;27.17;15.13;;;;;;;4.75;77.24;99030.05;128016;1114;23105;-78
2021/03/24 08:35:46;;;;;;;26.27;13.20;;;;;;;4.76;77.38;99042.48;127996;1115;22874;-76
2021/03/24 08:38:34;;;;;;;25.67;13.17;;;;;;;4.77;77.58;99054.14;127895;1113;22862;-76
2021/03/24 08:41:07;;;;;;;22.60;12.07;;;;;;;4.74;77.40;99036.45;128019;1113;22893;-76
2021/03/24 08:44:12;;;;;;;20.43;12.47;;;;;;;4.80;77.77;99043.80;128001;1113;23388;-76
2021/03/24 08:47:01;;;;;;;23.63;12.70;;;;;;;4.86;77.26;99036.78;128004;1113;22868;-75
2021/03/24 08:49:36;;;;;;;29.60;13.93;;;;;;;4.88;76.78;99040.94;128003;1114;22815;-75
2021/03/24 08:52:24;;;;;;;26.45;14.40;;;;;;;4.86;75.73;99043.00;128016;1113;22852;-76
2021/03/24 08:54:54;;;;;;;26.87;14.13;;;;;;;4.86;75.90;99040.30;128015;1113;22960;-76
2021/03/24 08:57:45;;;;;;;28.53;15.43;;;;;;;4.89;77.18;99041.80;128006;1113;23001;-76
2021/03/24 09:00:48;;;;;;;28.80;15.53;;;;;;;4.92;77.30;99041.39;128007;1113;23005;-76
2021/03/24 09:03:45;;;;;;;24.53;13.60;;;;;;;4.97;76.90;99038.13;127910;1113;22811;-76
2021/03/24 09:06:30;;;;;;;22.67;12.87;;;;;;;5.00;77.09;99033.16;128048;1113;22808;-75
2021/03/24 09:09:30;;;;;;;23.40;12.55;;;;;;;5.02;75.56;99032.98;128010;1115;22830;-75
2021/03/24 09:12:14;;;;;;;20.88;11.45;;;;;;;5.04;77.31;99037.14;128024;1113;22783;-77
2021/03/24 09:15:08;;;;;;;34.63;14.93;;;;;;;5.14;77.13;99036.81;128007;1114;22828;-77
2021/03/24 09:18:20;;;;;;;24.37;13.13;;;;;;;5.22;76.73;99042.05;128033;1114;22806;-76
2021/03/24 09:21:21;;;;;;;20.85;11.25;;;;;;;5.25;75.07;99038.14;127901;1113;22988;-76
2021/03/24 09:24:12;;;;;;;22.05;11.60;;;;;;;5.20;75.45;99035.19;127986;1113;23638;-77
2021/03/24 09:27:12;;;;;;;21.97;12.90;;;;;;;5.19;75.35;99038.91;128013;1113;22867;-77
2021/03/24 09:30:00;;;;;;;24.63;13.43;;;;;;;5.18;75.62;99034.55;128002;1114;23021;-77
2021/03/24 09:32:36;;;;;;;21.23;10.83;;;;;;;5.21;76.03;99031.47;127999;1115;22848;-76
2021/03/24 09:35:12;;;;;;;23.23;12.03;;;;;;;5.25;75.75;99036.27;128001;1114;22995;-77
2021/03/24 09:37:44;;;;;;;24.70;12.40;;;;;;;5.29;74.67;99034.01;128030;1113;22938;-76
2021/03/24 09:40:34;;;;;;;20.17;10.63;;;;;;;5.31;74.73;99040.90;128006;1114;23399;-77
2021/03/24 09:43:12;;;;;;;20.55;10.85;;;;;;;5.30;74.07;99028.41;128064;1115;23383;-77
2021/03/24 09:45:39;;;;;;;22.37;12.27;;;;;;;5.32;74.92;99029.05;128018;1114;23586;-77
2021/03/24 09:48:17;;;;;;;22.15;11.50;;;;;;;5.38;74.70;99032.81;128012;1113;23540;-77
2021/03/24 09:51:08;;;;;;;22.17;12.03;;;;;;;5.40;74.26;99033.48;128018;1114;22866;-77
2021/03/24 09:53:41;;;;;;;16.80;9.25;;;;;;;5.42;73.68;99035.95;128011;1114;23016;-77
2021/03/24 09:56:27;;;;;;;24.47;11.70;;;;;;;5.42;74.39;99035.95;128047;1114;22850;-77
2021/03/24 09:59:26;;;;;;;22.55;10.85;;;;;;;5.39;73.86;99033.67;128039;1114;22799;-77
2021/03/24 10:02:02;;;;;;;20.20;9.15;;;;;;;5.38;73.31;99026.59;128019;1114;23736;-77
2021/03/24 10:04:52;;;;;;;18.30;9.48;;;;;;;5.36;73.60;99020.56;128039;1113;22851;-77
2021/03/24 10:07:29;;;;;;;25.43;12.67;;;;;;;5.37;73.64;99025.77;128026;1114;22791;-76
2021/03/24 10:10:02;;;;;;;21.75;10.85;;;;;;;5.41;74.25;99026.20;128023;1114;22801;-77
2021/03/24 10:12:54;;;;;;;24.67;11.00;;;;;;;5.41;73.71;99028.91;128044;1114;22846;-77
2021/03/24 10:15:49;;;;;;;20.10;10.05;;;;;;;5.38;73.59;99032.81;128027;1114;22787;-77
2021/03/24 10:19:00;;;;;;;19.30;9.70;;;;;;;5.38;73.96;99035.52;128016;1115;22923;-76
2021/03/24 10:21:53;;;;;;;23.95;11.05;;;;;;;5.37;73.83;99035.75;128027;1114;22891;-76
2021/03/24 10:24:42;;;;;;;20.60;9.95;;;;;;;5.38;75.13;99034.69;128045;1114;22977;-77
2021/03/24 10:27:29;;;;;;;;;;;;;;;5.38;72.45;99029.29;128044;1113;22836;-77
2021/03/24 10:29:56;;;;;;;19.90;7.80;;;;;;;5.37;71.65;99033.87;128019;1113;21345;-76
2021/03/24 10:32:36;;;;;;;18.37;9.10;;;;;;;5.38;72.58;99027.41;128011;1113;22834;-76
2021/03/24 10:35:30;;;;;;;16.30;9.55;;;;;;;5.40;72.76;99025.37;128009;1114;22830;-77
2021/03/24 10:38:05;;;;;;;21.33;9.77;;;;;;;5.46;72.13;99024.58;127997;1114;22806;-77
2021/03/24 10:40:37;;;;;;;22.77;10.43;;;;;;;5.50;71.96;99012.33;128038;1113;22832;-77
2021/03/24 10:43:17;;;;;;;18.50;9.13;;;;;;;5.49;71.01;99013.38;128019;1113;22910;-76
2021/03/24 10:46:04;;;;;;;24.07;10.33;;;;;;;5.48;71.15;99017.10;128002;1114;23147;-76
2021/03/24 10:48:56;;;;;;;20.57;9.13;;;;;;;5.46;71.42;99012.94;128018;1113;22802;-76
2021/03/24 10:51:52;;;;;;;26.95;11.15;;;;;;;5.49;70.70;99015.26;128007;1114;23609;-76
2021/03/24 10:54:23;;;;;;;22.40;10.60;;;;;;;5.54;70.36;99011.94;127998;1113;23490;-76
2021/03/24 10:57:18;;;;;;;22.57;9.67;;;;;;;5.57;69.96;99022.36;128007;1114;22815;-77
2021/03/24 11:00:15;;;;;;;22.30;11.00;;;;;;;5.58;70.89;99007.80;128010;1114;22900;-76
2021/03/24 11:03:06;;;;;;;22.95;8.75;;;;;;;5.65;70.43;99008.70;128000;1114;23598;-77
2021/03/24 11:05:59;;;;;;;19.73;10.30;;;;;;;5.68;70.37;99009.13;128003;1114;22910;-76
2021/03/24 11:09:02;;;;;;;17.70;9.80;;;;;;;5.76;71.18;99010.00;127991;1114;23729;-76
2021/03/24 11:11:38;;;;;;;22.70;11.05;;;;;;;5.87;71.41;99012.13;128022;1113;23006;-76
2021/03/24 11:14:26;;;;;;;17.60;8.70;;;;;;;5.90;68.65;99014.43;128027;1113;22840;-76
2021/03/24 11:17:23;;;;;;;20.20;9.75;;;;;;;5.86;69.19;99003.19;127990;1114;23510;-76
2021/03/24 11:20:06;;;;;;;18.90;10.10;;;;;;;5.91;69.21;99002.56;127996;1114;22864;-77
2021/03/24 11:22:50;;;;;;;18.50;8.23;;;;;;;5.97;68.93;99009.92;128025;1114;22812;-77
2021/03/24 11:25:56;;;;;;;17.50;9.50;;;;;;;5.97;68.36;99007.22;128019;1114;22789;-77
2021/03/24 11:28:49;;;;;;;17.95;10.80;;;;;;;5.91;67.67;99002.56;127984;1114;22829;-76
2021/03/24 11:31:27;;;;;;;17.60;9.05;;;;;;;5.92;69.03;99001.55;127996;1114;22978;-76
2021/03/24 11:34:06;;;;;;;;;;;;;;;5.91;68.87;98994.45;128006;1114;22850;-77
2021/03/24 11:37:05;;;;;;;20.50;9.30;;;;;;;5.93;68.74;99010.48;128015;1114;21943;-77
2021/03/24 11:39:42;;;;;;;23.20;12.45;;;;;;;5.95;68.59;98997.59;127980;1114;22857;-77
2021/03/24 11:42:15;;;;;;;17.20;9.97;;;;;;;5.93;69.04;98986.97;128002;1114;22852;-77
2021/03/24 11:44:44;;;;;;;19.10;11.70;;;;;;;5.93;68.39;98980.74;128015;1114;22835;-77
2021/03/24 11:47:34;;;;;;;20.68;11.97;;;;;;;5.93;69.12;98986.15;128001;1114;22781;-77
2021/03/24 11:50:26;;;;;;;22.13;11.97;;;;;;;6.01;70.03;98984.14;128018;1114;22862;-77
2021/03/24 11:53:18;;;;;;;19.50;11.25;;;;;;;6.10;68.69;98984.80;127984;1113;22924;-77
2021/03/24 11:55:59;;;;;;;22.45;12.55;;;;;;;6.13;68.05;98984.39;128013;1113;22861;-77
2021/03/24 11:58:57;;;;;;;22.23;12.90;;;;;;;6.14;68.60;98987.92;128024;1114;22949;-77
2021/03/24 12:01:34;;;;;;;22.15;12.55;;;;;;;6.11;67.50;98991.02;128012;1113;22905;-77
2021/03/24 12:04:15;;;;;;;28.20;14.95;;;;;;;6.11;68.17;98983.77;128016;1113;22885;-77
2021/03/24 12:06:58;;;;;;;19.80;10.53;;;;;;;6.13;67.79;98984.39;128004;1113;23355;-77
2021/03/24 12:09:28;;;;;;;21.90;11.80;;;;;;;6.15;67.52;98981.49;128017;1114;22937;-77
2021/03/24 12:12:20;;;;;;;23.45;13.75;;;;;;;6.15;67.58;98986.90;128024;1114;22786;-77
2021/03/24 12:15:17;;;;;;;22.15;12.65;;;;;;;6.18;67.83;98987.33;128039;1113;22826;-77
2021/03/24 12:17:44;;;;;;;28.65;14.85;;;;;;;6.18;68.26;98990.03;128021;1113;22788;-77
2021/03/24 12:20:11;;;;;;;25.00;13.60;;;;;;;6.22;67.59;98993.16;128050;1113;22879;-77